Time;durP1;ratioP1;P1;durP2;ratioP2;P2;SDS_P1;SDS_P2;PMS_P1;PMS_P2;Temp;Humidity;BMP_temperature;BMP_pressure;BME280_temperature;BME280_humidity;BME280_pressure;Samples;Min_cycle;Max_cycle;Signal;HPM_P1;HPM_P2
2022/12/22 03:25:54;;;;;;;26.33;19.30;;;;;;;5.88;100.00;100125.41;7399607;19;20085;-69
2022/12/22 03:28:24;;;;;;;28.33;19.92;;;;;;;5.88;100.00;100117.59;7399993;19;20021;-70
2022/12/22 03:30:58;;;;;;;27.23;18.17;;;;;;;5.88;100.00;100113.25;7399160;19;20015;-70
2022/12/22 03:33:30;;;;;;;26.15;18.73;;;;;;;5.90;100.00;100108.00;7397287;19;20018;-70
2022/12/22 03:36:00;;;;;;;26.67;19.85;;;;;;;5.91;100.00;100101.94;7398468;19;20019;-70
2022/12/22 03:38:29;;;;;;;24.65;18.08;;;;;;;5.92;100.00;100102.81;7398665;19;20423;-70
2022/12/22 03:40:57;;;;;;;28.65;19.67;;;;;;;5.91;100.00;100096.72;7399640;19;20086;-70
2022/12/22 03:51:35;;;;;;;25.63;17.98;;;;;;;5.90;100.00;100081.97;7399846;19;20007;-70
2022/12/22 03:54:03;;;;;;;29.42;20.75;;;;;;;5.88;100.00;100083.75;7399199;19;20082;-70
2022/12/22 03:56:32;;;;;;;24.27;18.23;;;;;;;5.88;100.00;100076.81;7397477;19;20092;-70
2022/12/22 03:59:01;;;;;;;28.67;20.35;;;;;;;5.87;100.00;100071.63;7396966;19;20086;-70
2022/12/22 04:01:29;;;;;;;28.83;19.60;;;;;;;5.87;100.00;100067.25;7396358;19;20439;-70
2022/12/22 04:04:00;;;;;;;29.40;19.40;;;;;;;5.86;100.00;100067.28;7398380;19;20572;-70
2022/12/22 04:06:29;;;;;;;30.33;20.60;;;;;;;5.84;100.00;100067.31;7397173;19;20040;-70
2022/12/22 04:08:57;;;;;;;30.88;19.98;;;;;;;5.83;100.00;100062.13;7396795;19;20074;-70
2022/12/22 04:14:07;;;;;;;32.97;21.15;;;;;;;5.82;100.00;100060.41;7398507;19;20485;-69
2022/12/22 04:16:35;;;;;;;32.92;21.38;;;;;;;5.82;100.00;100057.81;7396795;19;20085;-69
2022/12/22 04:19:08;;;;;;;31.55;20.27;;;;;;;5.79;100.00;100039.63;7396469;19;20082;-69
2022/12/22 04:21:38;;;;;;;37.40;21.35;;;;;;;5.82;100.00;100050.84;7397917;19;20021;-68
2022/12/22 04:24:07;;;;;;;34.58;21.40;;;;;;;5.85;100.00;100057.75;7398164;19;20023;-69
2022/12/22 04:26:36;;;;;;;30.48;20.13;;;;;;;5.84;100.00;100051.69;7396647;19;20077;-68
2022/12/22 04:29:05;;;;;;;31.00;20.17;;;;;;;5.86;100.00;100043.84;7398550;19;20031;-68
2022/12/22 04:31:33;;;;;;;31.63;19.27;;;;;;;5.88;100.00;100042.09;7395757;19;20031;-68
2022/12/22 04:34:02;;;;;;;32.63;20.10;;;;;;;5.88;100.00;100040.34;7397727;19;20074;-69
2022/12/22 04:36:33;;;;;;;39.75;21.65;;;;;;;5.89;100.00;100030.81;7396114;19;20437;-69
2022/12/22 04:39:01;;;;;;;35.17;22.83;;;;;;;5.92;100.00;100033.38;7396673;19;20415;-69
2022/12/22 04:41:30;;;;;;;44.40;26.10;;;;;;;5.93;100.00;100029.88;7394918;19;20461;-70
2022/12/22 04:43:58;;;;;;;52.47;28.33;;;;;;;5.96;100.00;100024.63;7397453;19;20082;-70
2022/12/22 04:46:26;;;;;;;54.92;30.15;;;;;;;5.99;100.00;100019.41;7396026;19;20423;-70
2022/12/22 04:48:55;;;;;;;68.32;32.58;;;;;;;6.04;100.00;100024.56;7395560;19;20083;-70
2022/12/22 04:51:23;;;;;;;52.55;28.88;;;;;;;6.07;100.00;100023.66;7395804;19;20436;-70
2022/12/22 04:53:54;;;;;;;47.05;25.50;;;;;;;6.10;100.00;100027.06;7398047;19;20022;-70
2022/12/22 04:56:23;;;;;;;56.67;31.85;;;;;;;6.14;100.00;100020.94;7395507;19;20081;-70
2022/12/22 04:58:51;;;;;;;52.80;30.20;;;;;;;6.19;100.00;100016.50;7395047;19;20082;-70
2022/12/22 05:01:20;;;;;;;49.55;29.48;;;;;;;6.23;100.00;100017.34;7396843;19;20031;-70
2022/12/22 05:03:49;;;;;;;45.35;26.83;;;;;;;6.26;100.00;100008.59;7396319;19;20032;-70
2022/12/22 05:06:18;;;;;;;46.15;27.92;;;;;;;6.30;100.00;100005.06;7395188;19;20494;-70
2022/12/22 05:08:46;;;;;;;37.05;23.00;;;;;;;6.32;100.00;100001.53;7396263;19;20078;-70
2022/12/22 05:11:17;;;;;;;35.95;22.42;;;;;;;6.35;100.00;100000.63;7396819;19;20154;-69
2022/12/22 05:13:46;;;;;;;33.13;21.40;;;;;;;6.36;100.00;99995.38;7395292;19;20015;-70
2022/12/22 05:16:16;;;;;;;32.80;21.27;;;;;;;6.40;100.00;99992.75;7395758;19;20432;-70
2022/12/22 05:18:46;;;;;;;33.42;22.02;;;;;;;6.42;100.00;99988.34;7395184;19;20074;-70
2022/12/22 05:21:17;;;;;;;32.17;21.17;;;;;;;6.42;100.00;99989.22;7397540;19;20019;-69
2022/12/22 05:23:46;;;;;;;35.78;22.65;;;;;;;6.43;100.00;99985.75;7395118;19;20014;-70
2022/12/22 05:26:18;;;;;;;34.67;20.58;;;;;;;6.44;100.00;99984.00;7394479;19;20027;-69
2022/12/22 05:28:47;;;;;;;28.35;18.95;;;;;;;6.46;100.00;99982.22;7394023;19;20074;-70
2022/12/22 05:31:18;;;;;;;29.48;19.48;;;;;;;6.48;100.00;99970.00;7395532;19;20022;-70
2022/12/22 05:33:46;;;;;;;28.75;19.70;;;;;;;6.50;100.00;99957.81;7396280;19;20078;-70
2022/12/22 05:36:22;;;;;;;29.90;19.27;;;;;;;6.51;100.00;99956.94;7394855;19;20090;-70
2022/12/22 05:38:50;;;;;;;27.95;18.63;;;;;;;6.51;100.00;99949.97;7394712;19;20548;-70
2022/12/22 05:41:21;;;;;;;27.40;19.42;;;;;;;6.54;100.00;99950.81;7395545;19;20165;-69
2022/12/22 05:43:49;;;;;;;28.00;19.27;;;;;;;6.55;100.00;99949.94;7396026;19;20026;-69
2022/12/22 05:46:18;;;;;;;28.00;19.10;;;;;;;6.56;100.00;99949.91;7392838;19;20090;-69
2022/12/22 05:48:46;;;;;;;26.73;18.58;;;;;;;6.58;100.00;99944.66;7395396;19;20082;-69
2022/12/22 05:51:15;;;;;;;27.45;18.02;;;;;;;6.59;100.00;99942.03;7395094;19;20031;-69
2022/12/22 05:53:43;;;;;;;26.55;18.13;;;;;;;6.59;100.00;99936.81;7394785;19;20022;-70
2022/12/22 05:56:18;;;;;;;59.80;35.67;;;;;;;6.61;100.00;99939.38;7394663;19;20078;-68
2022/12/22 05:58:49;;;;;;;27.05;18.08;;;;;;;6.61;100.00;99935.03;7393320;19;20166;-69
2022/12/22 06:01:17;;;;;;;26.27;19.05;;;;;;;6.64;100.00;99936.72;7394529;19;20019;-69
2022/12/22 06:03:46;;;;;;;25.58;18.00;;;;;;;6.65;100.00;99925.41;7395002;19;20018;-69
2022/12/22 06:06:14;;;;;;;24.20;17.10;;;;;;;6.66;100.00;99916.69;7392721;19;20085;-70
2022/12/22 06:08:43;;;;;;;27.70;17.63;;;;;;;6.66;100.00;99914.97;7394470;19;20077;-69
2022/12/22 06:11:11;;;;;;;26.20;18.33;;;;;;;6.66;100.00;99912.34;7392186;19;20074;-70
2022/12/22 06:13:40;;;;;;;24.75;17.02;;;;;;;6.68;100.00;99913.19;7393923;19;20413;-69
2022/12/22 06:16:11;;;;;;;23.58;16.75;;;;;;;6.69;100.00;99899.25;7393708;19;20043;-69
2022/12/22 06:18:39;;;;;;;24.83;16.73;;;;;;;6.70;100.00;99913.16;7394841;19;20078;-69
2022/12/22 06:21:08;;;;;;;25.52;17.70;;;;;;;6.73;100.00;99914.84;7392146;19;20082;-69
2022/12/22 06:23:36;;;;;;;23.45;17.17;;;;;;;6.74;100.00;99908.75;7390642;19;20383;-69
2022/12/22 06:26:05;;;;;;;19.80;15.38;;;;;;;6.76;100.00;99902.63;7393053;19;20419;-69
2022/12/22 06:28:33;;;;;;;22.25;15.50;;;;;;;6.77;100.00;99903.47;7394838;19;20081;-70
2022/12/22 06:31:02;;;;;;;21.88;16.13;;;;;;;6.77;100.00;99901.69;7393850;19;20511;-70
2022/12/22 06:33:33;;;;;;;19.50;16.10;;;;;;;6.79;100.00;99899.94;7394237;19;20039;-71
2022/12/22 06:36:06;;;;;;;21.10;15.50;;;;;;;6.79;100.00;99905.16;7393533;19;20083;-70
2022/12/22 06:38:34;;;;;;;20.15;15.02;;;;;;;6.80;100.00;99906.88;7392332;19;20086;-69
2022/12/22 06:41:03;;;;;;;21.30;15.10;;;;;;;6.83;100.00;99895.53;7391478;19;20031;-69
2022/12/22 06:43:29;;;;;;;18.30;14.18;;;;;;;6.83;100.00;99901.59;7393616;19;20078;-68
2022/12/22 06:45:57;;;;;;;21.25;14.38;;;;;;;6.83;100.00;99896.38;7391777;19;20038;-69
2022/12/22 06:48:26;;;;;;;20.45;15.27;;;;;;;6.84;100.00;99899.84;7393567;19;20019;-68
2022/12/22 06:50:59;;;;;;;20.88;13.95;;;;;;;6.84;100.00;99895.47;7394244;19;20079;-69
2022/12/22 06:53:28;;;;;;;17.23;14.57;;;;;;;6.85;100.00;99892.00;7391492;19;20087;-69
2022/12/22 06:55:56;;;;;;;18.63;13.73;;;;;;;6.85;100.00;99894.59;7392064;19;20015;-69
2022/12/22 06:58:25;;;;;;;17.35;13.38;;;;;;;6.88;100.00;99890.22;7391719;19;20078;-68
2022/12/22 07:00:57;;;;;;;19.33;14.13;;;;;;;6.87;100.00;99881.53;7391461;19;20074;-72
2022/12/22 07:03:25;;;;;;;16.55;12.73;;;;;;;6.88;100.00;99887.63;7391631;19;20026;-70
2022/12/22 07:05:56;;;;;;;19.15;14.32;;;;;;;6.88;100.00;99890.22;7399398;19;20036;-68
2022/12/22 07:08:25;;;;;;;18.42;13.15;;;;;;;6.85;100.00;99886.78;7400694;19;20074;-68
2022/12/22 07:10:59;;;;;;;17.95;13.57;;;;;;;6.85;100.00;99892.00;7397504;19;20490;-69
2022/12/22 07:13:30;;;;;;;19.52;14.02;;;;;;;6.85;100.00;99891.16;7400618;19;20443;-67
2022/12/22 07:15:59;;;;;;;18.05;13.95;;;;;;;6.84;100.00;99889.44;7399251;19;20027;-69
2022/12/22 07:18:28;;;;;;;17.95;13.70;;;;;;;6.83;100.00;99880.72;7399535;19;20513;-67
2022/12/22 07:20:59;;;;;;;19.10;13.23;;;;;;;6.81;100.00;99879.03;7397548;19;20031;-68
2022/12/22 07:23:28;;;;;;;16.30;12.82;;;;;;;6.82;100.00;99875.56;7399832;19;20018;-68
2022/12/22 07:25:57;;;;;;;15.77;12.25;;;;;;;6.80;100.00;99878.19;7397472;19;20039;-70
2022/12/22 07:28:25;;;;;;;17.55;13.30;;;;;;;6.81;100.00;99874.69;7399634;19;20031;-69
2022/12/22 07:30:55;;;;;;;18.13;13.10;;;;;;;6.81;100.00;99871.22;7399855;19;20018;-69
2022/12/22 07:33:24;;;;;;;18.60;13.52;;;;;;;6.82;100.00;99871.22;7399771;19;20103;-68
2022/12/22 07:36:06;;;;;;;16.67;12.77;;;;;;;6.82;100.00;99870.34;7398129;19;20015;-69
2022/12/22 07:38:36;;;;;;;15.68;12.40;;;;;;;6.82;100.00;99865.13;7397586;19;20082;-68
2022/12/22 07:42:43;;;;;;;16.23;12.15;;;;;;;6.82;100.00;99860.78;7396911;19;20086;-67
2022/12/22 07:43:53;;;;;;;17.25;13.27;;;;;;;6.84;100.00;99865.97;7398497;19;20014;-68
2022/12/22 07:46:21;;;;;;;16.70;12.35;;;;;;;6.84;100.00;99863.34;7398202;19;20083;-68
2022/12/22 07:51:37;;;;;;;15.68;12.13;;;;;;;6.85;100.00;99859.84;7399291;19;20010;-68
2022/12/22 07:54:07;;;;;;;17.65;13.15;;;;;;;6.84;100.00;99852.91;7397291;19;20090;-68
2022/12/22 07:56:36;;;;;;;19.23;14.30;;;;;;;6.84;100.00;99852.91;7397805;19;20082;-68
2022/12/22 07:59:04;;;;;;;18.95;14.13;;;;;;;6.84;100.00;99850.31;7396868;19;20015;-68
2022/12/22 08:01:33;;;;;;;18.70;13.27;;;;;;;6.83;100.00;99846.81;7398761;19;20069;-70
2022/12/22 08:04:01;;;;;;;18.38;13.05;;;;;;;6.84;100.00;99842.50;7399168;19;20018;-70
2022/12/22 08:06:30;;;;;;;19.65;13.73;;;;;;;6.83;100.00;99844.22;7396902;19;20387;-70
2022/12/22 08:09:01;;;;;;;18.08;13.45;;;;;;;6.82;100.00;99836.44;7398192;19;20078;-68
2022/12/22 08:11:30;;;;;;;19.40;14.05;;;;;;;6.82;100.00;99832.09;7398315;19;20086;-70
2022/12/22 08:13:58;;;;;;;21.95;14.88;;;;;;;6.83;100.00;99836.41;7397481;19;20483;-69
2022/12/22 08:16:27;;;;;;;20.25;13.40;;;;;;;6.82;100.00;99834.72;7396349;19;20086;-69
2022/12/22 08:18:55;;;;;;;20.33;14.40;;;;;;;6.82;100.00;99832.09;7397699;19;20094;-69
2022/12/22 08:21:23;;;;;;;18.75;13.60;;;;;;;6.84;100.00;99838.13;7395758;19;20474;-70
2022/12/22 08:23:52;;;;;;;17.30;13.48;;;;;;;6.84;100.00;99830.31;7397735;19;20082;-70
2022/12/22 08:26:27;;;;;;;20.45;13.77;;;;;;;6.85;100.00;99825.97;7396119;19;20541;-70
2022/12/22 08:29:03;;;;;;;19.92;14.48;;;;;;;6.86;100.00;99830.25;7398550;19;20078;-70
2022/12/22 08:31:32;;;;;;;22.23;14.43;;;;;;;6.85;100.00;99821.59;7395812;19;20233;-71
2022/12/22 08:34:04;;;;;;;22.27;14.98;;;;;;;6.84;100.00;99817.25;7394745;19;20082;-71
2022/12/22 08:36:38;;;;;;;20.25;13.85;;;;;;;6.84;100.00;99817.25;7395118;19;20014;-70
2022/12/22 08:39:08;;;;;;;21.58;13.90;;;;;;;6.84;100.00;99813.81;7396939;19;20489;-70
2022/12/22 08:41:51;;;;;;;19.08;13.75;;;;;;;6.85;100.00;99807.72;7395584;19;20100;-70
2022/12/22 08:44:21;;;;;;;17.77;13.27;;;;;;;6.84;100.00;99801.63;7397826;19;20022;-70
2022/12/22 08:46:50;;;;;;;23.13;14.75;;;;;;;6.82;100.00;99798.22;7395799;19;20397;-69
2022/12/22 08:49:20;;;;;;;20.20;14.35;;;;;;;6.85;100.00;99795.53;7398133;19;20078;-69
2022/12/22 08:51:49;;;;;;;20.77;15.20;;;;;;;6.85;100.00;99803.34;7394895;19;20498;-69
2022/12/22 08:54:18;;;;;;;19.63;14.68;;;;;;;6.86;100.00;99793.75;7396946;19;20011;-69
2022/12/22 08:56:49;;;;;;;21.30;14.43;;;;;;;6.88;100.00;99801.56;7395171;19;20082;-70
2022/12/22 08:59:18;;;;;;;20.90;14.15;;;;;;;6.87;100.00;99790.25;7395163;19;20010;-69
2022/12/22 09:01:49;;;;;;;21.67;14.02;;;;;;;6.90;100.00;99786.72;7394735;19;20035;-69
2022/12/22 09:04:20;;;;;;;22.23;13.68;;;;;;;6.92;100.00;99796.22;7396504;19;20077;-69
2022/12/22 09:06:48;;;;;;;25.27;14.73;;;;;;;6.92;100.00;99793.63;7394751;19;20433;-70
2022/12/22 09:09:17;;;;;;;16.45;12.25;;;;;;;6.92;100.00;99791.03;7395726;19;20019;-70
2022/12/22 09:11:49;;;;;;;19.05;13.07;;;;;;;6.94;100.00;99786.63;7396269;19;20022;-69
2022/12/22 09:14:17;;;;;;;17.77;13.15;;;;;;;6.96;100.00;99794.41;7396560;19;20081;-70
2022/12/22 09:16:46;;;;;;;17.02;12.55;;;;;;;6.96;100.00;99784.00;7394282;19;20086;-70
2022/12/22 09:19:14;;;;;;;18.70;13.52;;;;;;;6.97;100.00;99781.34;7395806;19;20022;-70
2022/12/22 09:21:43;;;;;;;17.98;13.05;;;;;;;6.99;100.00;99781.34;7394046;19;20090;-70
2022/12/22 09:24:12;;;;;;;17.75;13.10;;;;;;;7.00;100.00;99778.69;7394436;19;20014;-71
2022/12/22 09:26:41;;;;;;;19.60;14.15;;;;;;;7.00;100.00;99776.06;7393044;19;20029;-69
2022/12/22 09:29:14;;;;;;;16.98;12.77;;;;;;;7.01;100.00;99769.09;7396173;19;20019;-69
2022/12/22 09:31:42;;;;;;;19.73;13.80;;;;;;;7.01;100.00;99769.97;7395315;19;20431;-69
2022/12/22 09:34:11;;;;;;;16.35;12.65;;;;;;;7.03;100.00;99761.22;7395726;19;20077;-69
2022/12/22 09:36:42;;;;;;;18.58;13.07;;;;;;;7.03;100.00;99763.84;7394308;19;20091;-69
2022/12/22 09:39:12;;;;;;;16.75;13.77;;;;;;;7.04;100.00;99761.22;7395588;19;20168;-70
2022/12/22 09:41:46;;;;;;;26.02;18.90;;;;;;;7.05;100.00;99756.84;7393933;19;20028;-70
2022/12/22 09:44:25;;;;;;;20.63;13.73;;;;;;;7.06;100.00;99755.97;7395429;19;20449;-70
2022/12/22 09:46:54;;;;;;;23.42;18.05;;;;;;;7.07;100.00;99752.47;7395406;19;20010;-68
2022/12/22 09:49:24;;;;;;;21.05;14.10;;;;;;;7.07;100.00;99748.09;7394926;19;20081;-69
2022/12/22 09:51:55;;;;;;;18.42;14.30;;;;;;;7.08;100.00;99752.41;7395826;19;20023;-68
2022/12/22 09:54:24;;;;;;;18.40;13.00;;;;;;;7.09;100.00;99746.31;7395118;19;20014;-69
2022/12/22 09:56:53;;;;;;;18.65;15.13;;;;;;;7.10;100.00;99749.78;7393712;19;20011;-69
2022/12/22 09:59:27;;;;;;;21.08;15.25;;;;;;;7.10;100.00;99744.56;7393370;19;20014;-70
2022/12/22 10:02:12;;;;;;;19.67;13.95;;;;;;;7.12;100.00;99734.94;7393303;19;20074;-68
2022/12/22 10:04:50;;;;;;;;;;;;;;;7.13;100.00;99739.28;7396708;19;20094;-69
2022/12/22 10:07:26;;;;;;;19.65;14.48;;;;;;;7.15;100.00;99729.66;7397707;19;19923;-69
2022/12/22 10:09:54;;;;;;;24.08;17.10;;;;;;;7.15;100.00;99727.91;7394810;19;20090;-70
2022/12/22 10:12:25;;;;;;;21.25;16.20;;;;;;;7.16;100.00;99721.78;7394265;19;20031;-70
2022/12/22 10:15:02;;;;;;;20.45;13.98;;;;;;;7.20;100.00;99726.94;7394293;19;20014;-68
2022/12/22 10:17:33;;;;;;;18.90;12.98;;;;;;;7.20;100.00;99717.34;7394026;19;20014;-69
2022/12/22 10:20:24;;;;;;;20.27;13.63;;;;;;;7.22;100.00;99723.41;7394493;19;20418;-71
2022/12/22 10:22:54;;;;;;;18.65;12.43;;;;;;;7.23;100.00;99719.03;7394712;19;20019;-70
2022/12/22 10:25:30;;;;;;;19.13;13.18;;;;;;;7.28;100.00;99719.75;7394572;19;20082;-69
2022/12/22 10:28:01;;;;;;;17.63;11.65;;;;;;;7.32;100.00;99709.22;7394043;19;20496;-69
2022/12/22 10:30:35;;;;;;;17.35;12.02;;;;;;;7.37;100.00;99710.84;7392986;19;20090;-69
2022/12/22 10:33:05;;;;;;;;;;;;;;;7.42;100.00;99711.59;7393813;19;20018;-69
2022/12/22 10:35:46;;;;;;;16.13;11.73;;;;;;;7.45;100.00;99704.56;7393007;19;19930;-69
2022/12/22 10:38:19;;;;;;;16.00;11.70;;;;;;;7.49;100.00;99701.00;7391443;19;20078;-69
2022/12/22 10:40:50;;;;;;;14.82;10.85;;;;;;;7.53;100.00;99691.31;7399924;19;20014;-69
2022/12/22 10:43:25;;;;;;;17.10;10.80;;;;;;;7.57;100.00;99692.97;7401218;19;20086;-69
2022/12/22 10:45:57;;;;;;;14.23;10.68;;;;;;;7.60;100.00;99692.84;7398303;19;20010;-69
2022/12/22 10:48:35;;;;;;;11.95;9.57;;;;;;;7.62;100.00;99695.41;7398726;19;20086;-69
2022/12/22 10:51:07;;;;;;;12.80;10.52;;;;;;;7.65;100.00;99695.34;7397959;19;20015;-69
2022/12/22 10:53:51;;;;;;;14.27;10.40;;;;;;;7.66;100.00;99694.47;7402037;19;20032;-68
2022/12/22 10:56:27;;;;;;;14.65;10.30;;;;;;;7.68;100.00;99692.66;7399731;19;20098;-67
2022/12/22 10:58:57;;;;;;;13.18;10.00;;;;;;;7.69;100.00;99691.75;7399620;19;20363;-69
2022/12/22 11:01:32;;;;;;;14.35;10.48;;;;;;;7.70;100.00;99687.41;7400031;19;20085;-70
2022/12/22 11:04:17;;;;;;;13.40;9.77;;;;;;;7.70;100.00;99688.25;7401833;19;20031;-70
2022/12/22 11:06:46;;;;;;;14.57;10.98;;;;;;;7.70;100.00;99688.25;7399308;19;20516;-69
2022/12/22 11:09:15;;;;;;;12.93;9.70;;;;;;;7.70;100.00;99682.19;7401902;19;20022;-69
2022/12/22 11:11:50;;;;;;;14.35;9.55;;;;;;;7.71;100.00;99684.75;7400615;19;20077;-70
2022/12/22 11:14:31;;;;;;;14.63;9.60;;;;;;;7.70;100.00;99682.19;7400662;19;20081;-70
2022/12/22 11:17:10;;;;;;;14.80;10.02;;;;;;;7.70;100.00;99675.19;7398131;19;20391;-69
2022/12/22 11:20:00;;;;;;;15.45;9.57;;;;;;;7.70;100.00;99675.19;7400440;19;20074;-69
2022/12/22 11:22:37;;;;;;;11.93;8.60;;;;;;;7.70;100.00;99664.75;7398338;19;20015;-70
2022/12/22 11:25:22;;;;;;;11.32;9.40;;;;;;;7.71;100.00;99665.59;7399440;19;20028;-70
2022/12/22 11:28:06;;;;;;;11.73;8.27;;;;;;;7.71;100.00;99658.66;7400027;19;20521;-69
2022/12/22 11:30:41;;;;;;;12.32;8.77;;;;;;;7.70;100.00;99651.72;7400071;19;20074;-70
2022/12/22 11:33:32;;;;;;;12.38;9.18;;;;;;;7.70;100.00;99650.88;7400515;19;20074;-69
2022/12/22 11:36:04;;;;;;;13.85;8.95;;;;;;;7.71;100.00;99648.22;7399272;19;20022;-69
2022/12/22 11:38:49;;;;;;;13.38;9.98;;;;;;;7.74;100.00;99647.25;7400227;19;20074;-68
2022/12/22 11:41:31;;;;;;;13.88;10.05;;;;;;;7.75;100.00;99638.53;7399551;19;20074;-70
2022/12/22 11:44:16;;;;;;;17.52;12.75;;;;;;;7.76;100.00;99635.88;7399908;19;20077;-69
2022/12/22 11:46:53;;;;;;;15.02;10.95;;;;;;;7.78;100.00;99631.44;7398251;19;20022;-70
2022/12/22 11:49:55;;;;;;;13.25;10.57;;;;;;;7.80;100.00;99634.88;7400001;19;20118;-69
2022/12/22 11:52:38;;;;;;;14.95;10.95;;;;;;;7.80;100.00;99632.28;7399572;19;20035;-69
2022/12/22 11:55:17;;;;;;;15.82;12.10;;;;;;;7.83;100.00;99631.31;7397072;19;20418;-70
2022/12/22 11:57:58;;;;;;;17.90;12.73;;;;;;;7.85;100.00;99636.50;7399937;19;20018;-69
2022/12/22 12:00:27;;;;;;;17.10;14.18;;;;;;;7.87;100.00;99627.72;7399629;19;20078;-69
2022/12/22 12:03:19;;;;;;;15.65;13.93;;;;;;;7.90;100.00;99629.38;7396704;19;20027;-69
2022/12/22 12:06:19;;;;;;;15.63;12.38;;;;;;;7.91;100.00;99631.97;7398427;19;20031;-69
2022/12/22 12:09:01;;;;;;;17.88;12.30;;;;;;;7.92;100.00;99636.31;7397067;19;20023;-69
2022/12/22 12:11:34;;;;;;;14.65;12.38;;;;;;;7.93;100.00;99631.94;7397318;19;20083;-69
2022/12/22 12:14:12;;;;;;;16.10;12.77;;;;;;;7.93;100.00;99642.38;7399783;19;20093;-69
2022/12/22 12:16:45;;;;;;;16.75;13.25;;;;;;;7.93;100.00;99643.22;7397490;19;20026;-69
2022/12/22 12:19:33;;;;;;;18.30;12.88;;;;;;;7.92;100.00;99643.28;7397045;19;20036;-70
2022/12/22 12:22:07;;;;;;;16.80;13.20;;;;;;;7.94;100.00;99644.94;7397902;19;20074;-69
2022/12/22 12:24:49;;;;;;;17.17;12.77;;;;;;;7.94;100.00;99633.66;7399331;19;20022;-69
2022/12/22 12:27:31;;;;;;;16.75;12.57;;;;;;;7.94;100.00;99631.88;7395768;19;20033;-68
2022/12/22 12:30:04;;;;;;;18.35;12.63;;;;;;;7.96;100.00;99629.22;7399092;19;20388;-69
2022/12/22 12:32:39;;;;;;;14.70;12.70;;;;;;;7.99;100.00;99629.16;7399189;19;20035;-70
2022/12/22 12:35:32;;;;;;;14.95;12.25;;;;;;;8.02;100.00;99633.41;7398677;19;20540;-70
2022/12/22 12:38:13;;;;;;;18.20;13.30;;;;;;;8.05;100.00;99630.72;7400446;19;20090;-72
2022/12/22 12:40:49;;;;;;;15.35;12.48;;;;;;;8.07;100.00;99634.97;7397939;19;20018;-71
2022/12/22 12:43:19;;;;;;;15.20;12.20;;;;;;;8.09;100.00;99620.13;7398102;19;20014;-71
2022/12/22 12:45:51;;;;;;;16.52;12.57;;;;;;;8.11;100.00;99625.31;7396580;19;20023;-71
2022/12/22 12:48:43;;;;;;;14.68;12.02;;;;;;;8.13;100.00;99624.34;7398015;19;20035;-71
2022/12/22 12:51:42;;;;;;;14.55;11.23;;;;;;;8.17;100.00;99625.13;7395281;19;20522;-71
2022/12/22 12:54:40;;;;;;;13.32;10.63;;;;;;;8.18;100.00;99626.84;7395506;19;20485;-71
2022/12/22 12:57:26;;;;;;;15.82;12.93;;;;;;;8.21;100.00;99629.34;7396022;19;20023;-71
2022/12/22 12:59:56;;;;;;;18.58;14.13;;;;;;;8.25;100.00;99640.56;7396162;19;20077;-70
2022/12/22 13:02:39;;;;;;;14.70;11.43;;;;;;;8.27;100.00;99644.84;7393199;19;20090;-70
2022/12/22 13:05:35;;;;;;;15.40;12.50;;;;;;;8.28;100.00;99643.09;7397168;19;20035;-70
2022/12/22 13:08:15;;;;;;;14.43;11.55;;;;;;;8.30;100.00;99643.91;7396544;19;20035;-70
2022/12/22 13:10:50;;;;;;;16.67;13.30;;;;;;;8.30;100.00;99634.31;7396164;19;20022;-70
2022/12/22 13:13:50;;;;;;;13.10;11.35;;;;;;;8.32;100.00;99634.28;7396382;19;20073;-69
2022/12/22 13:16:31;;;;;;;22.45;16.30;;;;;;;8.35;100.00;99634.16;7395344;19;20041;-69
2022/12/22 13:19:03;;;;;;;17.00;12.13;;;;;;;8.36;100.00;99635.88;7395898;19;20037;-69
2022/12/22 13:21:40;;;;;;;12.18;9.13;;;;;;;8.37;100.00;99645.44;7396119;19;20070;-69
2022/12/22 13:24:17;;;;;;;10.43;9.32;;;;;;;8.38;100.00;99651.50;7393455;19;20471;-70
2022/12/22 13:26:50;;;;;;;10.43;8.13;;;;;;;8.41;100.00;99659.28;7394197;19;20098;-69
2022/12/22 13:29:28;;;;;;;9.40;8.43;;;;;;;8.42;100.00;99661.00;7398001;19;20028;-69
2022/12/22 13:32:01;;;;;;;11.45;8.85;;;;;;;8.43;100.00;99662.72;7393418;19;20074;-70
2022/12/22 13:34:43;;;;;;;10.00;8.75;;;;;;;8.42;100.00;99658.38;7395947;19;20015;-69
2022/12/22 13:37:19;;;;;;;11.25;8.52;;;;;;;8.47;100.00;99670.41;7393586;19;20420;-69
2022/12/22 13:40:11;;;;;;;8.68;7.72;;;;;;;8.48;100.00;99677.38;7393229;19;20481;-69
2022/12/22 13:42:44;;;;;;;9.90;8.20;;;;;;;8.49;100.00;99675.59;7393231;19;20481;-69
2022/12/22 13:45:31;;;;;;;12.18;8.40;;;;;;;8.50;100.00;99679.09;7394215;19;20018;-68
2022/12/22 13:48:02;;;;;;;11.25;8.25;;;;;;;8.51;100.00;99686.88;7395874;19;20014;-70
2022/12/22 13:50:35;;;;;;;8.35;7.40;;;;;;;8.51;100.00;99684.25;7396044;19;20018;-70
2022/12/22 13:53:06;;;;;;;8.93;7.17;;;;;;;8.51;100.00;99692.09;7393544;19;20018;-69
2022/12/22 13:55:36;;;;;;;9.30;7.55;;;;;;;8.51;100.00;99691.25;7394683;19;20035;-70
2022/12/22 13:58:10;;;;;;;9.85;7.38;;;;;;;8.50;100.00;99700.84;7394073;19;20022;-71
2022/12/22 14:00:38;;;;;;;9.02;8.05;;;;;;;8.50;100.00;99700.00;7395560;19;20026;-71
2022/12/22 14:03:19;;;;;;;10.68;8.40;;;;;;;8.50;100.00;99705.22;7392158;19;20041;-70
2022/12/22 14:05:48;;;;;;;11.55;9.68;;;;;;;8.50;100.00;99707.84;7393826;19;20031;-71
2022/12/22 14:08:24;;;;;;;9.93;8.07;;;;;;;8.50;100.00;99710.44;7393833;19;20485;-71
2022/12/22 14:10:54;;;;;;;8.20;7.32;;;;;;;8.46;100.00;99700.06;7394198;19;20094;-72
2022/12/22 14:13:32;;;;;;;6.97;6.28;;;;;;;8.46;100.00;99700.06;7397401;19;20011;-71
2022/12/22 14:16:04;;;;;;;7.55;6.68;;;;;;;8.49;100.00;99714.81;7399017;19;20066;-72
2022/12/22 14:18:35;;;;;;;8.85;6.82;;;;;;;8.47;100.00;99725.31;7402885;19;20381;-72
2022/12/22 14:21:05;;;;;;;7.28;6.57;;;;;;;8.45;100.00;99736.69;7401967;19;20031;-71
2022/12/22 14:23:36;;;;;;;9.38;7.43;;;;;;;8.43;100.00;99736.75;7398548;19;20485;-71
2022/12/22 14:26:06;;;;;;;12.43;10.25;;;;;;;8.43;100.00;99738.50;7401409;19;20018;-70
2022/12/22 14:28:49;;;;;;;7.13;6.43;;;;;;;8.40;100.00;99742.03;7401836;19;20083;-67
2022/12/22 14:31:18;;;;;;;7.07;6.38;;;;;;;8.38;100.00;99732.53;7398973;19;20015;-69
2022/12/22 14:33:54;;;;;;;7.38;6.13;;;;;;;8.38;100.00;99746.47;7398200;19;20102;-69
2022/12/22 14:36:25;;;;;;;8.43;7.53;;;;;;;8.37;100.00;99760.44;7402387;19;20044;-70
2022/12/22 14:38:55;;;;;;;14.18;11.43;;;;;;;8.37;100.00;99756.97;7399081;19;20094;-69
2022/12/22 14:41:45;;;;;;;16.63;13.85;;;;;;;8.37;100.00;99762.22;7400688;19;20674;-70
2022/12/22 14:44:21;;;;;;;11.25;8.68;;;;;;;8.35;100.00;99772.69;7401502;19;20022;-69
2022/12/22 14:47:05;;;;;;;9.35;8.35;;;;;;;8.36;100.00;99777.00;7399458;19;20107;-69
2022/12/22 14:49:34;;;;;;;9.13;7.45;;;;;;;8.34;100.00;99778.84;7400869;19;20243;-69
2022/12/22 14:52:08;;;;;;;8.90;7.95;;;;;;;8.34;100.00;99784.06;7400972;19;20027;-70
2022/12/22 14:54:36;;;;;;;10.93;8.02;;;;;;;8.32;100.00;99791.06;7401589;19;20362;-70
2022/12/22 14:57:11;;;;;;;9.52;7.93;;;;;;;8.30;100.00;99793.75;7398765;19;20041;-72
2022/12/22 14:59:42;;;;;;;12.05;8.88;;;;;;;8.29;100.00;99797.25;7397805;19;20488;-72
2022/12/22 15:02:23;;;;;;;10.20;8.93;;;;;;;8.28;100.00;99803.38;7399983;19;20031;-72
2022/12/22 15:05:08;;;;;;;11.15;9.18;;;;;;;8.27;100.00;99798.19;7401360;19;20010;-69
2022/12/22 15:07:46;;;;;;;13.02;10.70;;;;;;;8.26;100.00;99817.38;7399246;19;20081;-70
2022/12/22 15:10:14;;;;;;;12.30;10.70;;;;;;;8.23;100.00;99815.69;7400856;19;20400;-70
2022/12/22 15:12:43;;;;;;;14.73;12.00;;;;;;;8.23;100.00;99820.09;7401013;19;20086;-70
2022/12/22 15:15:20;;;;;;;13.60;11.82;;;;;;;8.20;100.00;99838.44;7399985;19;20010;-70
2022/12/22 15:17:50;;;;;;;16.42;12.95;;;;;;;8.18;100.00;99828.03;7397382;19;20521;-70
2022/12/22 15:20:22;;;;;;;16.10;12.57;;;;;;;8.18;100.00;99838.47;7397879;19;20021;-71
2022/12/22 15:22:51;;;;;;;16.90;12.70;;;;;;;8.18;100.00;99848.94;7398503;19;20502;-71
2022/12/22 15:25:22;;;;;;;14.52;12.00;;;;;;;8.16;100.00;99848.09;7398290;19;20110;-69